-> Other stations

1455

Speed(max): 3.8(5.4)knots
Direction:326° ( NW)
Temperature: 8.3°C
Arrived: 2024-04-17 03:48:27 CEST

Past data:
hh:mmknots
Dir (°)
°C
03:46 4.3 4.9 NNW(331) 8.5
03:44 3.2 5.4 NW(323) 8.5
03:42 2.7 4.3 NNW(344) 8.7
03:40 3.8 5.9 NW(309) 9.0
03:38 5.4 8.1 WNW(296) 9.1
03:36 5.9 8.6 NW(307) 9.2
03:34 6.5 8.6 NW(312) 9.5
03:32 8.1 12.4 NW(314) 9.8
03:30 9.7 14 NNW(348) 10.1
03:28 10.8 15.1 NNW(347) 10.2
03:26 10.3 14.6 NNW(348) 10.2
03:24 13.5 18.4 N(0) 10.3
03:22 14.6 17.3 NNE(12) 10.6
03:20 14.6 18.9 NNE(24) 10.8
15 min. averages:
hh:mmknots
Dir (°)
°C
03:45 5.9 14 NW(319) 9.2
03:30 14 21.6 N(8) 10.6
03:15 20 24.3 NE(42) 11.0
03:00 20.5 25.4 NE(43) 10.8
02:45 20 24.8 NE(41) 10.7
02:30 21.1 26.5 NE(46) 10.7
02:15 21.6 27.5 NE(49) 10.6
02:00 21.6 27 NE(53) 10.6
01:45 22.7 28.6 NE(45) 10.3
01:30 22.7 29.7 NE(49) 10.1
01:15 24.3 30.2 NE(50) 10.1
01:00 24.8 30.8 NE(52) 10.3
00:45 24.8 31.3 NE(43) 10.6
00:30 25.9 31.9 NE(41) 10.8
00:15 24.8 31.3 NE(37) 10.6
Stations at HR:
1455
-> Other regions

Desktop view
Data provided by Holfuy.
© Holfuy Weather 2024